Nantucket, MA

11:00 AM EDT on September 04, 2015 (GMT -0400)
Brant Point | | Change Station
CLOSE
Current Station
Personal Weather Station
Location: Nantucket, MA
Elevation: 7 ft
Nearby Weather Stations

Elev 7 ft 41.29 °N, 70.10 °W | Updated 7 minutes ago

Clear
Clear
76.3 °F
Feels Like 78 °F
N
1.1
Wind Variable Wind from SE
Gusts 1.1 mph

Today
High -- | Low -- °F
--% Chance of Precip.
Yesterday
High -- | Low -- °F
Precip. -- in
6:09 AM 7:08 PM
Waning Gibbous, 59% visible
Pressure 30.09 in
Visibility 10.0 miles
Clouds Clear
Heat Index 78 °F
Dew Point 70 °F
Humidity 79%
Rainfall Not available.
Snow Depth Not available.
UV 7 out of 12
Pollen 7.80 out of 12
Air Quality Not available.
Flu Activity Not available.
METAR KACK 041453Z 07012G23KT 10SM CLR 24/18 A3009 RMK AO2 SLP190 T02390178 53020 $
Pressure 30.09 in
Visibility 10.0 miles
Clouds Clear
Heat Index 78 °F
Dew Point 70 °F
Humidity 79%
Rainfall Not available.
Snow Depth Not available.
UV 7 out of 12
Pollen 7.80 out of 12
Air Quality Not available.
Flu Activity Not available.
METAR KACK 041453Z 07012G23KT 10SM CLR 24/18 A3009 RMK AO2 SLP190 T02390178 53020 $

10-Day Weather Forecast

×

Almanac

Astronomy

Sep. 04, 2015 Rise Set
Actual Time
Civil Twilight
Nautical Twilight
Astronomical Twilight
Moon
Length of Visible Light
Length of Day
Tomorrow will be .
, % of the Moon is Illuminated

Today's Extremes

State Highs State Lows

Community

WunderPhotos

Upload Photos

1,852,187 photos uploaded!

WunderBlogs® & News

Nearby

Air Quality

  Air Quality AQ Index Pollutant
Not available.

Snow Depth

Station Depth Elevation

Earthquake Activity

City Distance Mag. Time & Date
Minimum magnitude displayed is 2.5.

Coastal Water Temperatures

Place Temperature

Stations

Nearby Weather Stations

Station Location Temp. Windchill Dew Point Humidity Wind Precip. Elev Updated Type